createdAt,value
2019-02-25T00:00:35.674Z,26.22
2019-02-25T00:01:35.714Z,26.29
2019-02-25T00:02:35.765Z,26.27
2019-02-25T00:03:35.823Z,26.18
2019-02-25T00:04:35.873Z,26.15
2019-02-25T00:05:35.960Z,26.05
2019-02-25T00:06:35.966Z,26.06
2019-02-25T00:07:36.001Z,26.21
2019-02-25T00:08:36.081Z,26.17
2019-02-25T00:09:36.122Z,26.21
2019-02-25T00:10:36.148Z,26.15
2019-02-25T00:11:36.217Z,26.20
2019-02-25T00:12:36.272Z,26.06
2019-02-25T00:13:36.312Z,26.05
2019-02-25T00:14:36.348Z,26.04
2019-02-25T00:15:36.404Z,26.11
2019-02-25T00:16:36.463Z,25.99
2019-02-25T00:17:36.529Z,25.91
2019-02-25T00:18:36.532Z,26.04
2019-02-25T00:19:36.623Z,25.97
2019-02-25T00:20:36.651Z,25.97
2019-02-25T00:21:36.696Z,25.93
2019-02-25T00:22:36.783Z,25.87
2019-02-25T00:23:36.836Z,25.90
2019-02-25T00:24:36.842Z,25.89
2019-02-25T00:25:36.879Z,25.82
2019-02-25T00:26:36.943Z,25.87
2019-02-25T00:27:37.037Z,25.86
2019-02-25T00:28:37.036Z,25.90
2019-02-25T00:29:37.088Z,25.82
2019-02-25T00:30:37.142Z,25.84
2019-02-25T00:31:37.209Z,25.86
2019-02-25T00:32:37.260Z,25.75
2019-02-25T00:33:37.285Z,25.72
2019-02-25T00:34:37.349Z,25.69
2019-02-25T00:35:37.395Z,25.79
2019-02-25T00:36:37.442Z,25.65
2019-02-25T00:37:37.514Z,25.65
2019-02-25T00:38:37.518Z,25.71
2019-02-25T00:39:37.589Z,25.62
2019-02-25T00:40:37.634Z,25.61
2019-02-25T00:41:37.688Z,25.59
2019-02-25T00:42:37.715Z,25.59
2019-02-25T00:43:37.816Z,25.50
2019-02-25T00:44:37.850Z,25.44
2019-02-25T00:45:37.919Z,25.46
2019-02-25T00:46:37.904Z,25.53
2019-02-25T00:47:38.006Z,25.39
2019-02-25T00:48:38.061Z,25.39
2019-02-25T00:49:38.088Z,25.39
2019-02-25T00:50:38.135Z,25.42
2019-02-25T00:51:38.156Z,25.38
2019-02-25T00:52:38.221Z,25.37
2019-02-25T00:53:38.256Z,25.31
2019-02-25T00:54:38.298Z,25.34
2019-02-25T00:55:38.355Z,25.31
2019-02-25T00:56:38.409Z,25.34
2019-02-25T00:57:38.445Z,25.20
2019-02-25T00:58:38.491Z,25.16
2019-02-25T00:59:38.559Z,25.20
2019-02-25T01:00:38.595Z,25.19
2019-02-25T01:01:38.643Z,25.17
2019-02-25T01:02:38.688Z,25.12
2019-02-25T01:03:38.732Z,25.15
2019-02-25T01:04:38.775Z,25.06
2019-02-25T01:05:38.848Z,25.19
2019-02-25T01:06:38.866Z,25.16
2019-02-25T01:07:38.945Z,25.10
2019-02-25T01:08:38.963Z,25.12
2019-02-25T01:09:39.034Z,25.00
2019-02-25T01:10:39.080Z,24.97
2019-02-25T01:11:39.105Z,25.05
2019-02-25T01:12:39.173Z,25.02
2019-02-25T01:13:39.223Z,25.10
2019-02-25T01:14:39.255Z,25.02
2019-02-25T01:15:39.316Z,24.95
2019-02-25T01:16:39.368Z,24.95
2019-02-25T01:17:39.416Z,24.97
2019-02-25T01:18:39.470Z,24.94
2019-02-25T01:19:39.516Z,24.95
2019-02-25T01:20:39.568Z,25.02
2019-02-25T01:21:39.594Z,24.92
2019-02-25T01:22:39.643Z,24.90
2019-02-25T01:23:39.707Z,24.91
2019-02-25T01:24:39.748Z,24.91
2019-02-25T01:25:39.802Z,24.91
2019-02-25T01:26:39.820Z,24.94
2019-02-25T01:27:39.935Z,24.85
2019-02-25T01:28:39.937Z,24.88
2019-02-25T01:29:39.991Z,24.88
2019-02-25T01:30:40.059Z,24.87
2019-02-25T01:31:40.087Z,24.80
2019-02-25T01:32:40.152Z,24.82
2019-02-25T01:33:40.174Z,24.79
2019-02-25T01:34:40.231Z,24.79
2019-02-25T01:35:40.282Z,24.79
2019-02-25T01:36:40.331Z,24.77
2019-02-25T01:37:40.425Z,24.80
2019-02-25T01:38:40.438Z,24.79
2019-02-25T01:39:40.458Z,24.82
2019-02-25T01:40:40.510Z,24.77
2019-02-25T01:41:40.571Z,24.77
2019-02-25T01:42:40.603Z,24.77
2019-02-25T01:43:40.647Z,24.76
2019-02-25T01:44:40.720Z,24.76
2019-02-25T01:45:40.765Z,24.75
2019-02-25T01:46:40.811Z,24.73
2019-02-25T01:47:40.856Z,24.67
2019-02-25T01:48:40.906Z,24.76
2019-02-25T01:49:40.954Z,24.69
2019-02-25T01:50:41.007Z,24.73
2019-02-25T01:51:41.044Z,24.75
2019-02-25T01:52:41.090Z,24.63
2019-02-25T01:53:41.144Z,24.68
2019-02-25T01:54:41.190Z,24.67
2019-02-25T01:55:41.226Z,24.60
2019-02-25T01:56:41.309Z,24.64
2019-02-25T01:57:41.343Z,24.61
2019-02-25T01:58:41.376Z,24.61
2019-02-25T01:59:41.425Z,24.60
2019-02-25T02:00:41.471Z,24.61
2019-02-25T02:01:41.530Z,24.53
2019-02-25T02:02:41.584Z,24.52
2019-02-25T02:03:41.628Z,24.59
2019-02-25T02:04:41.687Z,24.59
2019-02-25T02:05:41.714Z,24.61
2019-02-25T02:06:41.780Z,24.64
2019-02-25T02:07:41.801Z,24.57
2019-02-25T02:08:41.856Z,24.60
2019-02-25T02:09:41.954Z,24.64
2019-02-25T02:10:41.980Z,24.50
2019-02-25T02:11:42.033Z,24.60
2019-02-25T02:12:42.058Z,24.53
2019-02-25T02:13:42.118Z,24.53
2019-02-25T02:14:42.138Z,24.57
2019-02-25T02:15:42.208Z,24.45
2019-02-25T02:16:42.231Z,24.47
2019-02-25T02:17:42.282Z,24.42
2019-02-25T02:18:42.352Z,24.47
2019-02-25T02:19:42.381Z,24.34
2019-02-25T02:20:42.477Z,24.31
2019-02-25T02:21:42.486Z,24.32
2019-02-25T02:22:42.553Z,24.34
2019-02-25T02:23:42.597Z,24.31
2019-02-25T02:24:42.620Z,24.39
2019-02-25T02:25:42.672Z,24.29
2019-02-25T02:26:42.723Z,24.26
2019-02-25T02:27:42.796Z,24.29
2019-02-25T02:28:42.837Z,24.22
2019-02-25T02:29:42.877Z,24.34
2019-02-25T02:30:42.928Z,24.29
2019-02-25T02:31:42.960Z,24.39
2019-02-25T02:32:43.017Z,24.34
2019-02-25T02:33:43.084Z,24.29
2019-02-25T02:34:43.130Z,24.27
2019-02-25T02:35:43.186Z,24.35
2019-02-25T02:36:43.190Z,24.34
2019-02-25T02:37:43.274Z,24.26
2019-02-25T02:38:43.325Z,24.34
2019-02-25T02:39:43.361Z,24.29
2019-02-25T02:40:43.440Z,24.27
2019-02-25T02:41:43.455Z,24.23
2019-02-25T02:42:43.501Z,24.31
2019-02-25T02:43:43.558Z,24.26
2019-02-25T02:44:43.586Z,24.31
2019-02-25T02:45:43.640Z,24.26
2019-02-25T02:46:43.705Z,24.27
2019-02-25T02:47:43.784Z,24.32
2019-02-25T02:48:43.796Z,24.29
2019-02-25T02:49:43.848Z,24.27
2019-02-25T02:50:43.878Z,24.26
2019-02-25T02:51:43.945Z,24.27
2019-02-25T02:52:43.977Z,24.24
2019-02-25T02:53:44.018Z,24.35
2019-02-25T02:54:44.060Z,24.27
2019-02-25T02:55:44.115Z,24.41
2019-02-25T02:56:44.179Z,24.42
2019-02-25T02:57:44.228Z,24.47
2019-02-25T02:58:44.308Z,24.42
2019-02-25T02:59:44.366Z,24.38
2019-02-25T03:00:44.377Z,24.35
2019-02-25T03:01:44.418Z,24.39
2019-02-25T03:02:44.457Z,24.47
2019-02-25T03:03:44.523Z,24.39
2019-02-25T03:04:44.553Z,24.42
2019-02-25T03:05:44.610Z,24.45
2019-02-25T03:06:44.634Z,24.42
2019-02-25T03:07:44.833Z,24.34
2019-02-25T03:08:44.727Z,24.37
2019-02-25T03:09:44.782Z,24.41
2019-02-25T03:10:44.866Z,24.37
2019-02-25T03:11:44.885Z,24.35
2019-02-25T03:12:44.931Z,24.32
2019-02-25T03:13:44.991Z,24.37
2019-02-25T03:14:45.066Z,24.42
2019-02-25T03:15:45.072Z,24.42
2019-02-25T03:16:45.129Z,24.38
2019-02-25T03:17:45.219Z,24.42
2019-02-25T03:18:45.211Z,24.27
2019-02-25T03:19:45.271Z,24.27
2019-02-25T03:20:45.334Z,24.29
2019-02-25T03:21:45.390Z,24.34
2019-02-25T03:22:45.413Z,24.35
2019-02-25T03:23:45.521Z,24.35
2019-02-25T03:24:45.526Z,24.42
2019-02-25T03:25:45.575Z,24.47
2019-02-25T03:26:45.624Z,24.37
2019-02-25T03:27:45.709Z,24.42
2019-02-25T03:28:45.780Z,24.42
2019-02-25T03:29:45.764Z,24.41
2019-02-25T03:30:45.806Z,24.45
2019-02-25T03:31:45.826Z,24.42
2019-02-25T03:32:45.872Z,24.42
2019-02-25T03:33:45.992Z,24.41
2019-02-25T03:34:45.987Z,24.42
2019-02-25T03:35:46.061Z,24.39
2019-02-25T03:36:46.102Z,24.42
2019-02-25T03:37:46.143Z,24.41
2019-02-25T03:38:46.225Z,24.35
2019-02-25T03:39:46.228Z,24.45
2019-02-25T03:40:46.304Z,24.45
2019-02-25T03:41:46.365Z,24.39
2019-02-25T03:42:46.379Z,24.29
2019-02-25T03:43:46.461Z,24.41
2019-02-25T03:44:46.509Z,24.31
2019-02-25T03:45:46.520Z,24.38
2019-02-25T03:46:46.575Z,24.29
2019-02-25T03:47:46.619Z,24.41
2019-02-25T03:48:46.668Z,24.34
2019-02-25T03:49:46.696Z,24.41
2019-02-25T03:50:46.770Z,24.35
2019-02-25T03:51:46.780Z,24.35
2019-02-25T03:52:46.841Z,24.39
2019-02-25T03:53:46.898Z,24.35
2019-02-25T03:54:46.952Z,24.37
2019-02-25T03:55:46.997Z,24.41
2019-02-25T03:56:47.045Z,24.47
2019-02-25T03:57:47.108Z,24.35
2019-02-25T03:58:47.186Z,24.47
2019-02-25T03:59:47.226Z,24.37
2019-02-25T04:00:47.290Z,24.39
2019-02-25T04:01:47.276Z,24.39
2019-02-25T04:02:47.351Z,24.35
2019-02-25T04:03:47.379Z,24.49
2019-02-25T04:04:47.449Z,24.49
2019-02-25T04:05:47.462Z,24.54
2019-02-25T04:06:47.522Z,24.45
2019-02-25T04:07:47.614Z,24.42
2019-02-25T04:08:47.623Z,24.42
2019-02-25T04:09:47.669Z,24.44
2019-02-25T04:10:47.705Z,24.44
2019-02-25T04:11:47.809Z,24.44
2019-02-25T04:12:47.858Z,24.42
2019-02-25T04:13:47.869Z,24.47
2019-02-25T04:14:47.892Z,24.39
2019-02-25T04:15:47.963Z,24.49
2019-02-25T04:16:47.998Z,24.49
2019-02-25T04:17:48.088Z,24.47
2019-02-25T04:18:48.095Z,24.57
2019-02-25T04:19:48.144Z,24.57
2019-02-25T04:20:48.197Z,24.57
2019-02-25T04:21:48.244Z,24.47
2019-02-25T04:22:48.277Z,24.54
2019-02-25T04:23:48.330Z,24.60
2019-02-25T04:24:48.389Z,24.50
2019-02-25T04:25:48.442Z,24.52
2019-02-25T04:26:48.512Z,24.56
2019-02-25T04:27:48.566Z,24.57
2019-02-25T04:28:48.600Z,24.60
2019-02-25T04:29:48.633Z,24.57
2019-02-25T04:30:48.706Z,24.49
2019-02-25T04:31:48.717Z,24.56
2019-02-25T04:32:48.771Z,24.50
2019-02-25T04:33:48.860Z,24.52
2019-02-25T04:34:48.860Z,24.53
2019-02-25T04:35:48.959Z,24.56
2019-02-25T04:36:48.966Z,24.60
2019-02-25T04:37:49.057Z,24.50
2019-02-25T04:38:49.066Z,24.63
2019-02-25T04:39:49.092Z,24.57
2019-02-25T04:40:49.151Z,24.56
2019-02-25T04:41:49.210Z,24.61
2019-02-25T04:42:49.226Z,24.60
2019-02-25T04:43:49.293Z,24.63
2019-02-25T04:44:51.270Z,24.59
2019-02-25T04:45:49.386Z,24.60
2019-02-25T04:46:49.417Z,24.52
2019-02-25T04:47:49.482Z,24.53
2019-02-25T04:48:49.516Z,24.60
2019-02-25T04:49:49.579Z,24.53
2019-02-25T04:50:49.640Z,24.50
2019-02-25T04:51:49.683Z,24.52
2019-02-25T04:52:49.724Z,24.56
2019-02-25T04:53:49.763Z,24.49
2019-02-25T04:54:49.820Z,24.63
2019-02-25T04:55:49.850Z,24.53
2019-02-25T04:56:49.897Z,24.52
2019-02-25T04:57:49.954Z,24.45
2019-02-25T04:58:50.002Z,24.57
2019-02-25T04:59:50.090Z,24.42
2019-02-25T05:00:50.109Z,24.44
2019-02-25T05:01:50.144Z,24.49
2019-02-25T05:02:50.176Z,24.42
2019-02-25T05:03:50.245Z,24.44
2019-02-25T05:04:50.291Z,24.42
2019-02-25T05:05:50.350Z,24.42
2019-02-25T05:06:50.386Z,24.41
2019-02-25T05:07:50.435Z,24.39
2019-02-25T05:08:50.484Z,24.44
2019-02-25T05:09:50.543Z,24.49
2019-02-25T05:10:50.553Z,24.41
2019-02-25T05:11:50.628Z,24.41
2019-02-25T05:12:50.682Z,24.44
2019-02-25T05:13:50.735Z,24.41
2019-02-25T05:14:50.749Z,24.42
2019-02-25T05:15:50.832Z,24.41
2019-02-25T05:16:50.854Z,24.39
2019-02-25T05:17:50.897Z,24.41
2019-02-25T05:18:50.967Z,24.29
2019-02-25T05:19:51.031Z,24.31
2019-02-25T05:20:51.040Z,24.39
2019-02-25T05:21:51.107Z,24.37
2019-02-25T05:22:51.156Z,24.31
2019-02-25T05:23:51.242Z,24.35
2019-02-25T05:24:51.292Z,24.34
2019-02-25T05:25:51.330Z,24.38
2019-02-25T05:26:51.337Z,24.34
2019-02-25T05:27:51.410Z,24.41
2019-02-25T05:28:51.431Z,24.42
2019-02-25T05:29:51.479Z,24.35
2019-02-25T05:30:51.568Z,24.35
2019-02-25T05:31:51.581Z,24.41
2019-02-25T05:32:51.668Z,24.38
2019-02-25T05:33:51.688Z,24.39
2019-02-25T05:34:51.751Z,24.41
2019-02-25T05:35:51.802Z,24.35
2019-02-25T05:36:51.828Z,24.38
2019-02-25T05:37:51.871Z,24.27
2019-02-25T05:38:51.927Z,24.39
2019-02-25T05:39:51.980Z,24.37
2019-02-25T05:40:52.025Z,24.31
2019-02-25T05:41:52.075Z,24.35
2019-02-25T05:42:52.106Z,24.35
2019-02-25T05:43:52.203Z,24.35
2019-02-25T05:44:52.233Z,24.34
2019-02-25T05:45:52.270Z,24.29
2019-02-25T05:46:52.309Z,24.27
2019-02-25T05:47:52.373Z,24.42
2019-02-25T05:48:52.415Z,24.38
2019-02-25T05:49:52.463Z,24.27
2019-02-25T05:50:52.509Z,24.29
2019-02-25T05:51:52.558Z,24.26
2019-02-25T05:52:52.603Z,24.31
2019-02-25T05:53:52.654Z,24.29
2019-02-25T05:54:52.687Z,24.26
2019-02-25T05:55:52.748Z,24.29
2019-02-25T05:56:52.790Z,24.37
2019-02-25T05:57:52.844Z,24.24
2019-02-25T05:58:52.890Z,24.35
2019-02-25T05:59:52.951Z,24.26
2019-02-25T06:00:52.981Z,24.26
2019-02-25T06:01:53.087Z,24.27
2019-02-25T06:02:53.101Z,24.32
2019-02-25T06:03:53.180Z,24.35
2019-02-25T06:04:53.193Z,24.26
2019-02-25T06:05:53.234Z,24.27
2019-02-25T06:06:53.335Z,24.27
2019-02-25T06:07:53.371Z,24.29
2019-02-25T06:08:53.434Z,24.29
2019-02-25T06:09:53.434Z,24.35
2019-02-25T06:10:53.529Z,24.32
2019-02-25T06:11:53.519Z,24.20
2019-02-25T06:12:53.556Z,24.34
2019-02-25T06:13:53.684Z,24.26
2019-02-25T06:14:53.649Z,24.19
2019-02-25T06:15:53.726Z,24.20
2019-02-25T06:16:53.789Z,24.17
2019-02-25T06:17:53.843Z,24.20
2019-02-25T06:18:53.865Z,24.19
2019-02-25T06:19:53.905Z,24.22
2019-02-25T06:20:53.940Z,24.19
2019-02-25T06:21:53.983Z,24.12
2019-02-25T06:22:54.055Z,24.12
2019-02-25T06:23:54.093Z,24.07
2019-02-25T06:24:54.130Z,24.16
2019-02-25T06:25:54.171Z,24.05
2019-02-25T06:26:54.248Z,24.05
2019-02-25T06:27:54.297Z,24.07
2019-02-25T06:28:54.348Z,24.02
2019-02-25T06:29:54.400Z,24.02
2019-02-25T06:30:54.435Z,24.00
2019-02-25T06:31:54.475Z,24.12
2019-02-25T06:32:54.519Z,24.05
2019-02-25T06:33:54.581Z,23.95
2019-02-25T06:34:54.629Z,23.94
2019-02-25T06:35:54.667Z,23.94
2019-02-25T06:36:54.759Z,23.89
2019-02-25T06:37:54.780Z,23.86
2019-02-25T06:38:54.811Z,23.86
2019-02-25T06:39:54.853Z,23.82
2019-02-25T06:40:54.916Z,23.86
2019-02-25T06:41:54.946Z,23.85
2019-02-25T06:42:55.041Z,23.90
2019-02-25T06:43:55.047Z,23.87
2019-02-25T06:44:55.106Z,23.82
2019-02-25T06:45:55.147Z,23.87
2019-02-25T06:46:55.178Z,24.00
2019-02-25T06:47:55.249Z,23.94
2019-02-25T06:48:55.287Z,24.02
2019-02-25T06:49:55.342Z,23.98
2019-02-25T06:50:55.387Z,23.95
2019-02-25T06:51:55.415Z,24.02
2019-02-25T06:52:55.472Z,23.97
2019-02-25T06:53:55.523Z,23.94
2019-02-25T06:54:55.572Z,23.95
2019-02-25T06:55:55.619Z,24.04
2019-02-25T06:56:55.671Z,24.04
2019-02-25T06:57:55.710Z,24.07
2019-02-25T06:58:55.764Z,24.08
2019-02-25T06:59:55.812Z,24.07
2019-02-25T07:00:55.845Z,24.00
2019-02-25T07:01:55.889Z,24.01
2019-02-25T07:02:55.946Z,23.98
2019-02-25T07:03:55.978Z,24.04
2019-02-25T07:04:56.043Z,24.04
2019-02-25T07:05:56.093Z,23.95
2019-02-25T07:06:56.127Z,23.86
2019-02-25T07:07:56.188Z,23.85
2019-02-25T07:08:56.228Z,23.87
2019-02-25T07:09:56.264Z,23.87
2019-02-25T07:10:56.337Z,23.83
2019-02-25T07:11:56.353Z,23.77
2019-02-25T07:12:56.451Z,23.82
2019-02-25T07:13:56.491Z,23.83
2019-02-25T07:14:56.505Z,23.82
2019-02-25T07:15:56.552Z,23.90
2019-02-25T07:16:57.305Z,23.86
2019-02-25T07:17:56.644Z,23.92
2019-02-25T07:18:56.711Z,23.89
2019-02-25T07:19:56.783Z,23.98
2019-02-25T07:20:56.798Z,23.95
2019-02-25T07:21:56.862Z,24.00
2019-02-25T07:22:56.892Z,23.97
2019-02-25T07:23:56.959Z,24.00
2019-02-25T07:24:56.993Z,24.12
2019-02-25T07:25:57.027Z,24.01
2019-02-25T07:26:57.069Z,24.02
2019-02-25T07:27:57.121Z,24.02
2019-02-25T07:28:57.203Z,23.97
2019-02-25T07:29:57.212Z,24.02
2019-02-25T07:30:57.269Z,24.05
2019-02-25T07:31:57.321Z,24.00
2019-02-25T07:32:57.354Z,24.05
2019-02-25T07:33:57.416Z,24.00
2019-02-25T07:34:57.458Z,24.02
2019-02-25T07:35:57.543Z,24.01
2019-02-25T07:36:57.548Z,24.02
2019-02-25T07:37:57.612Z,24.05
2019-02-25T07:38:57.643Z,24.00
2019-02-25T07:39:57.699Z,24.00
2019-02-25T07:40:57.775Z,24.05
2019-02-25T07:41:57.953Z,24.07
2019-02-25T07:42:57.838Z,24.05
2019-02-25T07:43:57.926Z,24.07
2019-02-25T07:44:58.009Z,24.16
2019-02-25T07:45:57.967Z,24.13
2019-02-25T07:46:58.037Z,24.07
2019-02-25T07:47:58.303Z,24.13
2019-02-25T07:48:58.133Z,24.04
2019-02-25T07:49:58.178Z,23.97
2019-02-25T07:50:58.219Z,24.14
2019-02-25T07:51:58.271Z,24.13
2019-02-25T07:52:58.297Z,24.07
2019-02-25T07:53:58.365Z,24.07
2019-02-25T07:54:58.425Z,24.13
2019-02-25T07:56:02.272Z,24.12
2019-02-25T07:56:58.486Z,24.07
2019-02-25T07:57:58.548Z,24.10
2019-02-25T07:58:58.656Z,24.14
2019-02-25T07:59:58.670Z,24.12
2019-02-25T08:00:58.693Z,23.98
2019-02-25T08:01:58.759Z,24.10
2019-02-25T08:02:58.772Z,24.08
2019-02-25T08:03:58.844Z,23.98
2019-02-25T08:04:58.905Z,24.07
2019-02-25T08:05:58.918Z,24.08
2019-02-25T08:06:58.988Z,24.07
2019-02-25T08:07:59.038Z,24.13
2019-02-25T08:08:59.088Z,24.07
2019-02-25T08:09:59.132Z,24.22
2019-02-25T08:10:59.171Z,24.14
2019-02-25T08:11:59.242Z,24.10
2019-02-25T08:12:59.261Z,24.12
2019-02-25T08:13:59.323Z,24.10
2019-02-25T08:14:59.390Z,24.16
2019-02-25T08:15:59.415Z,24.01
2019-02-25T08:16:59.435Z,24.12
2019-02-25T08:17:59.553Z,24.10
2019-02-25T08:18:59.559Z,24.12
2019-02-25T08:19:59.599Z,24.05
2019-02-25T08:20:59.645Z,24.13
2019-02-25T08:21:59.693Z,24.10
2019-02-25T08:22:59.732Z,24.12
2019-02-25T08:23:59.897Z,24.08
2019-02-25T08:24:59.821Z,24.07
2019-02-25T08:25:59.915Z,24.08
2019-02-25T08:26:59.919Z,24.12
2019-02-25T08:28:00.019Z,24.12
2019-02-25T08:29:00.040Z,24.16
2019-02-25T08:30:00.097Z,24.08
2019-02-25T08:31:00.132Z,24.12
2019-02-25T08:32:00.175Z,24.07
2019-02-25T08:33:00.235Z,24.00
2019-02-25T08:34:00.276Z,24.13
2019-02-25T08:35:00.417Z,24.10
2019-02-25T08:36:00.365Z,23.98
2019-02-25T08:37:02.664Z,23.98
2019-02-25T08:38:00.440Z,24.19
2019-02-25T08:39:00.500Z,24.13
2019-02-25T08:40:00.564Z,24.08
2019-02-25T08:41:00.614Z,24.08
2019-02-25T08:42:00.657Z,24.12
2019-02-25T08:43:00.688Z,24.14
2019-02-25T08:44:00.786Z,24.07
2019-02-25T08:45:00.783Z,24.08
2019-02-25T08:46:00.972Z,24.07
2019-02-25T08:47:00.883Z,24.08
2019-02-25T08:48:02.711Z,24.01
2019-02-25T08:49:00.988Z,24.10
2019-02-25T08:50:01.029Z,23.98
2019-02-25T08:51:01.084Z,24.01
2019-02-25T08:52:01.164Z,24.04
2019-02-25T08:53:01.201Z,24.12
2019-02-25T08:54:01.222Z,24.04
2019-02-25T08:55:01.266Z,24.01
2019-02-25T08:56:01.339Z,23.98
2019-02-25T08:57:01.374Z,23.95
2019-02-25T08:58:01.429Z,23.95
2019-02-25T08:59:01.464Z,23.90
2019-02-25T09:00:01.556Z,23.97
2019-02-25T09:01:01.544Z,24.00
2019-02-25T09:02:01.617Z,23.97
2019-02-25T09:03:01.671Z,23.98
2019-02-25T09:04:01.702Z,23.97
2019-02-25T09:05:01.733Z,23.98
2019-02-25T09:06:01.844Z,23.97
2019-02-25T09:07:01.855Z,23.94
2019-02-25T09:08:01.925Z,24.01
2019-02-25T09:09:01.945Z,23.98
2019-02-25T09:10:02.037Z,24.01
2019-02-25T09:11:02.048Z,24.02
2019-02-25T09:12:02.093Z,24.05
2019-02-25T09:13:02.134Z,23.98
2019-02-25T09:14:02.194Z,24.01
2019-02-25T09:15:02.217Z,24.04
2019-02-25T09:16:02.322Z,24.00
2019-02-25T09:17:02.342Z,24.04
2019-02-25T09:18:02.398Z,24.08
2019-02-25T09:19:02.440Z,24.10
2019-02-25T09:20:02.512Z,24.14
2019-02-25T09:21:02.528Z,24.10
2019-02-25T09:22:02.619Z,24.13
2019-02-25T09:23:02.711Z,24.13
2019-02-25T09:24:02.673Z,24.17
2019-02-25T09:25:02.737Z,24.08
2019-02-25T09:26:02.780Z,24.02
2019-02-25T09:27:02.836Z,24.14
2019-02-25T09:28:02.855Z,24.12
2019-02-25T09:29:02.900Z,24.10
2019-02-25T09:30:02.976Z,24.17
2019-02-25T09:31:03.040Z,24.16
2019-02-25T09:32:03.054Z,24.17
2019-02-25T09:33:03.098Z,24.17
2019-02-25T09:34:03.164Z,24.24
2019-02-25T09:35:03.247Z,24.26
2019-02-25T09:36:03.293Z,24.24
2019-02-25T09:37:03.291Z,24.26
2019-02-25T09:38:03.368Z,24.32
2019-02-25T09:39:03.384Z,24.24
2019-02-25T09:40:03.428Z,24.29
2019-02-25T09:41:03.496Z,24.31
2019-02-25T09:42:03.542Z,24.29
2019-02-25T09:43:03.590Z,24.29
2019-02-25T09:44:03.616Z,24.26
2019-02-25T09:45:03.684Z,24.24
2019-02-25T09:46:03.745Z,24.42
2019-02-25T09:47:05.201Z,24.41
2019-02-25T09:48:03.828Z,24.49
2019-02-25T09:49:03.875Z,24.59
2019-02-25T09:50:03.909Z,24.50
2019-02-25T09:51:03.983Z,24.56
2019-02-25T09:52:04.033Z,24.60
2019-02-25T09:53:04.111Z,24.64
2019-02-25T09:54:04.124Z,24.64
2019-02-25T09:55:04.153Z,24.71
2019-02-25T09:56:04.253Z,24.73
2019-02-25T09:57:04.264Z,24.75
2019-02-25T09:58:04.306Z,24.76
2019-02-25T09:59:04.365Z,24.80
2019-02-25T10:00:04.410Z,24.79
2019-02-25T10:01:04.503Z,24.90
2019-02-25T10:02:04.494Z,24.82
2019-02-25T10:03:04.572Z,24.87
2019-02-25T10:04:04.594Z,24.83
2019-02-25T10:05:04.632Z,24.92
2019-02-25T10:06:04.735Z,25.00
2019-02-25T10:07:04.756Z,24.94
2019-02-25T10:08:04.797Z,25.06
2019-02-25T10:09:04.863Z,25.12
2019-02-25T10:10:04.909Z,25.07
2019-02-25T10:11:04.938Z,25.13
2019-02-25T10:12:04.991Z,25.19
2019-02-25T10:13:05.027Z,25.25
2019-02-25T10:14:05.061Z,25.30
2019-02-25T10:15:05.209Z,25.31
2019-02-25T10:16:05.201Z,25.37
2019-02-25T10:17:05.236Z,25.52
2019-02-25T10:18:05.292Z,25.69
2019-02-25T10:19:05.334Z,25.93
2019-02-25T10:20:05.369Z,26.05
2019-02-25T10:21:05.426Z,26.22
2019-02-25T10:22:05.487Z,26.39
2019-02-25T10:23:05.533Z,26.43
2019-02-25T10:24:05.594Z,26.49
2019-02-25T10:25:05.608Z,26.62
2019-02-25T10:26:05.674Z,26.69
2019-02-25T10:27:05.772Z,26.69
2019-02-25T10:28:05.782Z,26.59
2019-02-25T10:29:05.828Z,26.35
2019-02-25T10:30:05.883Z,26.24
2019-02-25T10:31:05.928Z,26.17
2019-02-25T10:32:06.533Z,26.05
2019-02-25T10:33:06.037Z,26.01
2019-02-25T10:34:07.659Z,26.02
2019-02-25T10:35:06.144Z,26.01
2019-02-25T10:36:06.214Z,26.02
2019-02-25T10:37:06.234Z,25.91
2019-02-25T10:38:06.285Z,25.86
2019-02-25T10:39:06.318Z,25.90
2019-02-25T10:40:06.376Z,25.94
2019-02-25T10:41:06.435Z,25.93
2019-02-25T10:42:06.478Z,25.87
2019-02-25T10:43:06.545Z,26.08
2019-02-25T10:44:08.484Z,26.17
2019-02-25T10:45:07.357Z,26.20
2019-02-25T10:46:07.042Z,26.20
2019-02-25T10:47:06.723Z,26.17
2019-02-25T10:48:06.765Z,26.18
2019-02-25T10:49:11.523Z,26.04
2019-02-25T10:50:07.442Z,26.08
2019-02-25T10:51:07.649Z,26.22
2019-02-25T10:52:08.725Z,26.37
2019-02-25T10:53:07.034Z,26.54
2019-02-25T10:54:07.120Z,26.69
2019-02-25T10:55:07.126Z,26.73
2019-02-25T10:56:07.177Z,26.92
2019-02-25T10:57:07.221Z,27.09
2019-02-25T10:58:07.273Z,27.21
2019-02-25T10:59:08.268Z,27.19
2019-02-25T11:00:09.534Z,27.24
2019-02-25T11:01:13.490Z,27.31
2019-02-25T11:02:09.099Z,27.38
2019-02-25T11:03:07.534Z,27.35
2019-02-25T11:04:07.615Z,27.41
2019-02-25T11:05:07.610Z,27.35
2019-02-25T11:06:07.678Z,27.38
2019-02-25T11:07:09.516Z,27.46
2019-02-25T11:08:09.444Z,27.84
2019-02-25T11:09:09.027Z,28.41
2019-02-25T11:10:07.885Z,28.80
2019-02-25T11:11:07.925Z,28.91
2019-02-25T11:12:08.023Z,28.91
2019-02-25T11:13:08.058Z,29.22
2019-02-25T11:14:09.235Z,29.63
2019-02-25T11:15:09.536Z,29.82
2019-02-25T11:16:09.853Z,29.62
2019-02-25T11:17:08.245Z,29.49
2019-02-25T11:18:08.295Z,29.53
2019-02-25T11:19:08.343Z,29.22
2019-02-25T11:20:08.511Z,29.20
2019-02-25T11:21:10.464Z,29.40
2019-02-25T11:22:10.391Z,29.68
2019-02-25T11:23:10.160Z,29.96
2019-02-25T11:24:08.597Z,30.62
2019-02-25T11:25:08.664Z,31.36
2019-02-25T11:26:09.385Z,32.32
2019-02-25T11:27:08.789Z,32.85
2019-02-25T11:28:11.239Z,32.96
2019-02-25T11:29:09.823Z,32.85
2019-02-25T11:30:09.794Z,32.17
2019-02-25T11:31:09.006Z,31.64
2019-02-25T11:32:09.053Z,31.24
2019-02-25T11:33:09.111Z,30.91
2019-02-25T11:34:09.152Z,30.93
2019-02-25T11:35:10.842Z,30.62
2019-02-25T11:36:10.565Z,30.78
2019-02-25T11:37:09.334Z,31.20
2019-02-25T11:38:09.362Z,31.26
2019-02-25T11:39:09.676Z,31.68
2019-02-25T11:40:09.492Z,32.29
2019-02-25T11:41:11.258Z,32.37
2019-02-25T11:42:10.861Z,31.72
2019-02-25T11:43:10.681Z,31.50
2019-02-25T11:44:09.699Z,31.20
2019-02-25T11:45:09.759Z,30.75
2019-02-25T11:46:09.802Z,31.15
2019-02-25T11:47:09.882Z,31.88
2019-02-25T11:48:09.901Z,32.81
2019-02-25T11:49:09.976Z,33.70
2019-02-25T11:50:10.062Z,34.70
2019-02-25T11:51:10.088Z,34.73
2019-02-25T11:52:10.129Z,35.20
2019-02-25T11:53:10.192Z,35.64
2019-02-25T11:54:10.305Z,35.54
2019-02-25T11:55:10.311Z,35.29
2019-02-25T11:56:10.377Z,34.91
2019-02-25T11:57:10.435Z,33.95
2019-02-25T11:58:10.473Z,33.65
2019-02-25T11:59:10.558Z,33.30
2019-02-25T12:00:10.605Z,33.30
2019-02-25T12:01:10.656Z,32.99
2019-02-25T12:02:10.723Z,32.47
2019-02-25T12:03:10.758Z,32.80
2019-02-25T12:04:10.835Z,32.93
2019-02-25T12:05:10.893Z,33.23
2019-02-25T12:06:10.940Z,33.51
2019-02-25T12:07:10.977Z,33.53
2019-02-25T12:08:11.062Z,33.34
2019-02-25T12:09:11.115Z,33.89
2019-02-25T12:10:11.168Z,34.57
2019-02-25T12:11:11.232Z,35.35
2019-02-25T12:12:11.282Z,36.33
2019-02-25T12:13:11.336Z,37.23
2019-02-25T12:14:11.407Z,38.07
2019-02-25T12:15:11.456Z,37.86
2019-02-25T12:16:11.515Z,38.53
2019-02-25T12:17:11.578Z,39.35
2019-02-25T12:18:11.618Z,39.51
2019-02-25T12:19:18.026Z,39.61
2019-02-25T12:20:11.791Z,39.88
2019-02-25T12:21:11.817Z,39.44
2019-02-25T12:22:11.890Z,39.18
2019-02-25T12:23:11.919Z,39.24
2019-02-25T12:24:11.997Z,38.85
2019-02-25T12:25:12.052Z,38.44
2019-02-25T12:26:12.116Z,38.05
2019-02-25T12:27:12.175Z,37.66
2019-02-25T12:28:12.281Z,37.14
2019-02-25T12:29:12.310Z,36.24
2019-02-25T12:30:12.375Z,35.35
2019-02-25T12:31:12.410Z,35.21
2019-02-25T12:32:12.456Z,35.03
2019-02-25T12:33:12.596Z,35.11
2019-02-25T12:34:12.611Z,35.03
2019-02-25T12:35:12.662Z,34.56
2019-02-25T12:36:13.764Z,34.34
2019-02-25T12:37:12.794Z,33.86
2019-02-25T12:38:12.842Z,34.02
2019-02-25T12:39:12.901Z,34.13
2019-02-25T12:40:12.937Z,34.53
2019-02-25T12:41:13.040Z,34.94
2019-02-25T12:42:13.065Z,35.02
2019-02-25T12:43:13.144Z,35.10
2019-02-25T12:44:13.190Z,35.25
2019-02-25T12:45:13.245Z,35.21
2019-02-25T12:46:13.284Z,35.21
2019-02-25T12:47:13.357Z,35.29
2019-02-25T12:48:13.410Z,35.18
2019-02-25T12:49:13.470Z,34.66
2019-02-25T12:50:13.545Z,34.09
2019-02-25T12:51:13.585Z,33.73
2019-02-25T12:52:13.670Z,34.16
2019-02-25T12:53:13.708Z,34.53